sensor_id;sensor_type;location;lat;lon;timestamp;temperature;humidity
44817;DHT22;30529;53.570;9.964;2022-09-20T00:00:46;10.00;99.90
44817;DHT22;30529;53.570;9.964;2022-09-20T00:03:14;10.00;99.90
44817;DHT22;30529;53.570;9.964;2022-09-20T00:05:43;10.00;99.90
44817;DHT22;30529;53.570;9.964;2022-09-20T00:08:12;10.00;99.90
44817;DHT22;30529;53.570;9.964;2022-09-20T00:10:39;9.90;99.90
44817;DHT22;30529;53.570;9.964;2022-09-20T00:13:08;10.00;99.90
44817;DHT22;30529;53.570;9.964;2022-09-20T00:15:42;9.90;99.90
44817;DHT22;30529;53.570;9.964;2022-09-20T00:18:09;9.90;99.90
44817;DHT22;30529;53.570;9.964;2022-09-20T00:20:43;9.90;99.90
44817;DHT22;30529;53.570;9.964;2022-09-20T00:23:09;9.90;99.90
44817;DHT22;30529;53.570;9.964;2022-09-20T00:25:35;9.90;99.90
44817;DHT22;30529;53.570;9.964;2022-09-20T00:28:01;9.90;99.90
44817;DHT22;30529;53.570;9.964;2022-09-20T00:30:27;9.90;99.90
44817;DHT22;30529;53.570;9.964;2022-09-20T00:32:54;9.80;99.90
44817;DHT22;30529;53.570;9.964;2022-09-20T00:35:20;9.80;99.90
44817;DHT22;30529;53.570;9.964;2022-09-20T00:37:46;9.80;99.90
44817;DHT22;30529;53.570;9.964;2022-09-20T00:40:16;9.80;99.90
44817;DHT22;30529;53.570;9.964;2022-09-20T00:42:42;9.80;99.90
44817;DHT22;30529;53.570;9.964;2022-09-20T00:45:24;9.80;99.90
44817;DHT22;30529;53.570;9.964;2022-09-20T00:47:58;9.80;99.90
44817;DHT22;30529;53.570;9.964;2022-09-20T00:53:15;9.80;99.90
44817;DHT22;30529;53.570;9.964;2022-09-20T00:56:28;9.70;99.90
44817;DHT22;30529;53.570;9.964;2022-09-20T00:58:38;9.70;99.90
44817;DHT22;30529;53.570;9.964;2022-09-20T01:01:05;9.70;99.90
44817;DHT22;30529;53.570;9.964;2022-09-20T01:03:34;9.70;99.90
44817;DHT22;30529;53.570;9.964;2022-09-20T01:06:05;9.70;99.90
44817;DHT22;30529;53.570;9.964;2022-09-20T01:08:33;9.60;99.90
44817;DHT22;30529;53.570;9.964;2022-09-20T01:11:00;9.60;99.90
44817;DHT22;30529;53.570;9.964;2022-09-20T01:13:27;9.60;99.90
44817;DHT22;30529;53.570;9.964;2022-09-20T01:15:53;9.60;99.90
44817;DHT22;30529;53.570;9.964;2022-09-20T01:18:21;9.60;99.90
44817;DHT22;30529;53.570;9.964;2022-09-20T01:20:49;9.60;99.90
44817;DHT22;30529;53.570;9.964;2022-09-20T01:31:59;9.50;99.90
44817;DHT22;30529;53.570;9.964;2022-09-20T01:34:33;9.50;99.90
44817;DHT22;30529;53.570;9.964;2022-09-20T01:42:35;9.50;99.90
44817;DHT22;30529;53.570;9.964;2022-09-20T01:45:26;9.50;99.90
44817;DHT22;30529;53.570;9.964;2022-09-20T01:54:02;9.50;99.90
44817;DHT22;30529;53.570;9.964;2022-09-20T02:11:22;9.50;99.90
44817;DHT22;30529;53.570;9.964;2022-09-20T02:16:55;9.40;99.90
44817;DHT22;30529;53.570;9.964;2022-09-20T02:19:44;9.40;99.90
44817;DHT22;30529;53.570;9.964;2022-09-20T02:31:37;9.30;99.90
44817;DHT22;30529;53.570;9.964;2022-09-20T02:37:12;9.30;99.90
44817;DHT22;30529;53.570;9.964;2022-09-20T02:42:17;9.20;99.90
44817;DHT22;30529;53.570;9.964;2022-09-20T02:45:09;9.20;99.90
44817;DHT22;30529;53.570;9.964;2022-09-20T02:47:38;9.20;99.90
44817;DHT22;30529;53.570;9.964;2022-09-20T02:50:17;9.10;99.90
44817;DHT22;30529;53.570;9.964;2022-09-20T03:02:09;9.10;99.90
44817;DHT22;30529;53.570;9.964;2022-09-20T03:07:38;9.00;99.90
44817;DHT22;30529;53.570;9.964;2022-09-20T03:10:17;9.00;99.90
44817;DHT22;30529;53.570;9.964;2022-09-20T03:19:18;9.00;99.90
44817;DHT22;30529;53.570;9.964;2022-09-20T03:33:00;8.90;99.90
44817;DHT22;30529;53.570;9.964;2022-09-20T03:36:01;8.90;99.90
44817;DHT22;30529;53.570;9.964;2022-09-20T03:38:44;8.80;99.90
44817;DHT22;30529;53.570;9.964;2022-09-20T03:46:28;8.70;99.90
44817;DHT22;30529;53.570;9.964;2022-09-20T04:02:42;8.60;99.90
44817;DHT22;30529;53.570;9.964;2022-09-20T04:05:23;8.60;99.90
44817;DHT22;30529;53.570;9.964;2022-09-20T04:08:08;8.60;99.90
44817;DHT22;30529;53.570;9.964;2022-09-20T04:11:06;8.50;99.90
44817;DHT22;30529;53.570;9.964;2022-09-20T04:13:43;8.50;99.90
44817;DHT22;30529;53.570;9.964;2022-09-20T04:16:26;8.50;99.90
44817;DHT22;30529;53.570;9.964;2022-09-20T04:21:54;8.50;99.90
44817;DHT22;30529;53.570;9.964;2022-09-20T04:24:41;8.50;99.90
44817;DHT22;30529;53.570;9.964;2022-09-20T04:30:19;8.50;99.90
44817;DHT22;30529;53.570;9.964;2022-09-20T04:38:19;8.50;99.90
44817;DHT22;30529;53.570;9.964;2022-09-20T04:43:51;8.50;99.90
44817;DHT22;30529;53.570;9.964;2022-09-20T04:52:23;8.50;99.90
44817;DHT22;30529;53.570;9.964;2022-09-20T05:06:40;8.50;99.90
44817;DHT22;30529;53.570;9.964;2022-09-20T05:09:43;8.50;99.90
44817;DHT22;30529;53.570;9.964;2022-09-20T05:12:45;8.50;99.90
44817;DHT22;30529;53.570;9.964;2022-09-20T05:26:50;8.60;99.90
44817;DHT22;30529;53.570;9.964;2022-09-20T05:29:28;8.70;99.90
44817;DHT22;30529;53.570;9.964;2022-09-20T05:42:54;8.70;99.90
44817;DHT22;30529;53.570;9.964;2022-09-20T06:00:13;8.90;99.90
44817;DHT22;30529;53.570;9.964;2022-09-20T06:06:47;9.00;99.90
44817;DHT22;30529;53.570;9.964;2022-09-20T06:11:55;9.10;99.90
44817;DHT22;30529;53.570;9.964;2022-09-20T06:17:22;9.20;99.90
44817;DHT22;30529;53.570;9.964;2022-09-20T06:20:10;9.30;99.90
44817;DHT22;30529;53.570;9.964;2022-09-20T06:22:41;9.30;99.90
44817;DHT22;30529;53.570;9.964;2022-09-20T06:30:21;9.50;99.90
44817;DHT22;30529;53.570;9.964;2022-09-20T06:35:42;9.50;99.90
44817;DHT22;30529;53.570;9.964;2022-09-20T06:41:26;9.60;99.90
44817;DHT22;30529;53.570;9.964;2022-09-20T06:44:00;9.70;99.90
44817;DHT22;30529;53.570;9.964;2022-09-20T06:46:28;9.70;99.90
44817;DHT22;30529;53.570;9.964;2022-09-20T06:48:55;9.80;99.90
44817;DHT22;30529;53.570;9.964;2022-09-20T06:51:23;9.80;99.90
44817;DHT22;30529;53.570;9.964;2022-09-20T06:53:51;9.90;99.90
44817;DHT22;30529;53.570;9.964;2022-09-20T06:56:21;9.90;99.90
44817;DHT22;30529;53.570;9.964;2022-09-20T06:58:48;9.90;99.90
44817;DHT22;30529;53.570;9.964;2022-09-20T07:01:14;10.00;99.90
44817;DHT22;30529;53.570;9.964;2022-09-20T07:03:41;10.00;99.90
44817;DHT22;30529;53.570;9.964;2022-09-20T07:06:08;10.10;99.90
44817;DHT22;30529;53.570;9.964;2022-09-20T07:08:34;10.10;99.90
44817;DHT22;30529;53.570;9.964;2022-09-20T07:11:11;10.10;99.90
44817;DHT22;30529;53.570;9.964;2022-09-20T07:13:37;10.20;99.90
44817;DHT22;30529;53.570;9.964;2022-09-20T07:16:05;10.20;99.90
44817;DHT22;30529;53.570;9.964;2022-09-20T07:18:32;10.30;99.90
44817;DHT22;30529;53.570;9.964;2022-09-20T07:21:00;10.30;99.90
44817;DHT22;30529;53.570;9.964;2022-09-20T07:23:27;10.30;99.90
44817;DHT22;30529;53.570;9.964;2022-09-20T07:25:55;10.30;99.90
44817;DHT22;30529;53.570;9.964;2022-09-20T07:28:24;10.40;99.90
44817;DHT22;30529;53.570;9.964;2022-09-20T07:30:50;10.40;99.90
44817;DHT22;30529;53.570;9.964;2022-09-20T07:33:16;10.40;99.90
44817;DHT22;30529;53.570;9.964;2022-09-20T07:35:47;10.50;99.90
44817;DHT22;30529;53.570;9.964;2022-09-20T07:38:14;10.50;99.90
44817;DHT22;30529;53.570;9.964;2022-09-20T07:40:42;10.60;99.90
44817;DHT22;30529;53.570;9.964;2022-09-20T07:43:10;10.60;99.90
44817;DHT22;30529;53.570;9.964;2022-09-20T07:45:36;10.60;99.90
44817;DHT22;30529;53.570;9.964;2022-09-20T07:48:06;10.70;99.90
44817;DHT22;30529;53.570;9.964;2022-09-20T07:50:34;10.80;99.90
44817;DHT22;30529;53.570;9.964;2022-09-20T07:53:01;10.80;99.90
44817;DHT22;30529;53.570;9.964;2022-09-20T07:55:29;10.80;99.90
44817;DHT22;30529;53.570;9.964;2022-09-20T07:57:55;10.80;99.90
44817;DHT22;30529;53.570;9.964;2022-09-20T08:00:22;10.90;99.90
44817;DHT22;30529;53.570;9.964;2022-09-20T08:02:56;10.90;99.90
44817;DHT22;30529;53.570;9.964;2022-09-20T08:05:24;10.90;99.90
44817;DHT22;30529;53.570;9.964;2022-09-20T08:07:50;10.90;99.90
44817;DHT22;30529;53.570;9.964;2022-09-20T08:10:16;11.00;99.90
44817;DHT22;30529;53.570;9.964;2022-09-20T08:12:42;11.10;99.90
44817;DHT22;30529;53.570;9.964;2022-09-20T08:15:08;11.10;99.90
44817;DHT22;30529;53.570;9.964;2022-09-20T08:17:35;11.20;99.90
44817;DHT22;30529;53.570;9.964;2022-09-20T08:20:01;11.20;99.90
44817;DHT22;30529;53.570;9.964;2022-09-20T08:22:27;11.20;99.90
44817;DHT22;30529;53.570;9.964;2022-09-20T08:24:53;11.30;99.90
44817;DHT22;30529;53.570;9.964;2022-09-20T08:27:19;11.30;99.90
44817;DHT22;30529;53.570;9.964;2022-09-20T08:29:45;11.30;99.90
44817;DHT22;30529;53.570;9.964;2022-09-20T08:32:11;11.40;99.90
44817;DHT22;30529;53.570;9.964;2022-09-20T08:34:37;11.40;99.90
44817;DHT22;30529;53.570;9.964;2022-09-20T08:37:05;11.50;99.90
44817;DHT22;30529;53.570;9.964;2022-09-20T08:39:31;11.50;99.90
44817;DHT22;30529;53.570;9.964;2022-09-20T08:47:18;11.70;99.90
44817;DHT22;30529;53.570;9.964;2022-09-20T08:49:46;11.70;99.90
44817;DHT22;30529;53.570;9.964;2022-09-20T08:52:17;11.80;99.90
44817;DHT22;30529;53.570;9.964;2022-09-20T08:54:44;11.80;99.90
44817;DHT22;30529;53.570;9.964;2022-09-20T08:57:14;11.80;99.90
44817;DHT22;30529;53.570;9.964;2022-09-20T08:59:42;11.80;99.90
44817;DHT22;30529;53.570;9.964;2022-09-20T09:02:18;12.00;99.90
44817;DHT22;30529;53.570;9.964;2022-09-20T09:04:45;12.00;99.90
44817;DHT22;30529;53.570;9.964;2022-09-20T09:07:13;12.30;99.90
44817;DHT22;30529;53.570;9.964;2022-09-20T09:09:42;12.40;99.90
44817;DHT22;30529;53.570;9.964;2022-09-20T09:12:23;12.50;99.90
44817;DHT22;30529;53.570;9.964;2022-09-20T09:14:51;12.70;99.90
44817;DHT22;30529;53.570;9.964;2022-09-20T09:17:26;12.80;99.90
44817;DHT22;30529;53.570;9.964;2022-09-20T09:22:42;13.10;99.90
44817;DHT22;30529;53.570;9.964;2022-09-20T09:25:21;13.30;99.90
44817;DHT22;30529;53.570;9.964;2022-09-20T09:30:30;13.30;99.90
44817;DHT22;30529;53.570;9.964;2022-09-20T09:38:26;12.90;99.90
44817;DHT22;30529;53.570;9.964;2022-09-20T09:40:55;12.90;99.90
44817;DHT22;30529;53.570;9.964;2022-09-20T09:43:25;13.00;99.90
44817;DHT22;30529;53.570;9.964;2022-09-20T09:45:53;13.10;99.90
44817;DHT22;30529;53.570;9.964;2022-09-20T09:48:24;13.20;99.90
44817;DHT22;30529;53.570;9.964;2022-09-20T09:51:10;13.20;99.90
44817;DHT22;30529;53.570;9.964;2022-09-20T09:53:37;13.20;99.90
44817;DHT22;30529;53.570;9.964;2022-09-20T10:04:34;13.80;99.90
44817;DHT22;30529;53.570;9.964;2022-09-20T10:12:50;14.00;99.90
44817;DHT22;30529;53.570;9.964;2022-09-20T10:18:03;13.80;99.90
44817;DHT22;30529;53.570;9.964;2022-09-20T10:26:22;13.90;99.90
44817;DHT22;30529;53.570;9.964;2022-09-20T10:32:24;14.00;99.90
44817;DHT22;30529;53.570;9.964;2022-09-20T10:35:24;14.10;99.90
44817;DHT22;30529;53.570;9.964;2022-09-20T10:40:46;14.00;99.90
44817;DHT22;30529;53.570;9.964;2022-09-20T10:46:47;13.50;99.90
44817;DHT22;30529;53.570;9.964;2022-09-20T10:49:26;13.40;99.90
44817;DHT22;30529;53.570;9.964;2022-09-20T11:00:24;13.60;99.90
44817;DHT22;30529;53.570;9.964;2022-09-20T11:08:21;13.60;99.90
44817;DHT22;30529;53.570;9.964;2022-09-20T11:16:04;13.80;99.90
44817;DHT22;30529;53.570;9.964;2022-09-20T11:18:36;14.00;99.90
44817;DHT22;30529;53.570;9.964;2022-09-20T11:21:19;14.20;99.90
44817;DHT22;30529;53.570;9.964;2022-09-20T11:26:38;14.80;99.90
44817;DHT22;30529;53.570;9.964;2022-09-20T11:29:29;15.00;99.90
44817;DHT22;30529;53.570;9.964;2022-09-20T11:32:23;15.00;99.90
44817;DHT22;30529;53.570;9.964;2022-09-20T11:35:44;14.80;99.90
44817;DHT22;30529;53.570;9.964;2022-09-20T11:37:56;14.40;99.90
44817;DHT22;30529;53.570;9.964;2022-09-20T11:40:30;14.00;99.90
44817;DHT22;30529;53.570;9.964;2022-09-20T11:43:00;13.80;99.90
44817;DHT22;30529;53.570;9.964;2022-09-20T11:45:27;13.60;99.90
44817;DHT22;30529;53.570;9.964;2022-09-20T11:48:02;13.60;99.90
44817;DHT22;30529;53.570;9.964;2022-09-20T11:58:52;14.00;99.90
44817;DHT22;30529;53.570;9.964;2022-09-20T12:01:28;14.20;99.90
44817;DHT22;30529;53.570;9.964;2022-09-20T12:06:39;14.50;99.90
44817;DHT22;30529;53.570;9.964;2022-09-20T12:09:26;14.50;99.90
44817;DHT22;30529;53.570;9.964;2022-09-20T12:11:54;14.40;99.90
44817;DHT22;30529;53.570;9.964;2022-09-20T12:14:28;14.40;99.90
44817;DHT22;30529;53.570;9.964;2022-09-20T12:16:57;14.30;99.90
44817;DHT22;30529;53.570;9.964;2022-09-20T12:24:32;14.10;99.90
44817;DHT22;30529;53.570;9.964;2022-09-20T12:32:42;14.50;99.90
44817;DHT22;30529;53.570;9.964;2022-09-20T12:41:17;15.30;99.90
44817;DHT22;30529;53.570;9.964;2022-09-20T12:43:54;15.40;99.90
44817;DHT22;30529;53.570;9.964;2022-09-20T12:46:37;15.30;99.90
44817;DHT22;30529;53.570;9.964;2022-09-20T12:56:12;14.50;99.90
44817;DHT22;30529;53.570;9.964;2022-09-20T12:58:48;14.30;99.90
44817;DHT22;30529;53.570;9.964;2022-09-20T13:03:44;14.30;99.90
44817;DHT22;30529;53.570;9.964;2022-09-20T13:16:58;15.40;99.90
44817;DHT22;30529;53.570;9.964;2022-09-20T13:19:36;15.60;99.90
44817;DHT22;30529;53.570;9.964;2022-09-20T13:22:16;15.70;99.90
44817;DHT22;30529;53.570;9.964;2022-09-20T13:24:56;15.70;99.90
44817;DHT22;30529;53.570;9.964;2022-09-20T13:27:37;15.60;99.90
44817;DHT22;30529;53.570;9.964;2022-09-20T13:30:20;15.40;99.90
44817;DHT22;30529;53.570;9.964;2022-09-20T13:32:48;15.20;99.90
44817;DHT22;30529;53.570;9.964;2022-09-20T13:35:21;15.10;99.90
44817;DHT22;30529;53.570;9.964;2022-09-20T13:37:50;14.90;99.90
44817;DHT22;30529;53.570;9.964;2022-09-20T13:42:53;14.80;99.90
44817;DHT22;30529;53.570;9.964;2022-09-20T13:45:24;14.80;99.90
44817;DHT22;30529;53.570;9.964;2022-09-20T13:47:52;14.70;99.90
44817;DHT22;30529;53.570;9.964;2022-09-20T13:50:38;14.60;99.90
44817;DHT22;30529;53.570;9.964;2022-09-20T13:53:16;14.50;99.90
44817;DHT22;30529;53.570;9.964;2022-09-20T13:55:43;14.40;99.90
44817;DHT22;30529;53.570;9.964;2022-09-20T13:58:31;14.40;99.90
44817;DHT22;30529;53.570;9.964;2022-09-20T14:01:00;14.40;99.90
44817;DHT22;30529;53.570;9.964;2022-09-20T14:03:28;14.40;99.90
44817;DHT22;30529;53.570;9.964;2022-09-20T14:08:31;14.60;99.90
44817;DHT22;30529;53.570;9.964;2022-09-20T14:11:27;14.70;99.90
44817;DHT22;30529;53.570;9.964;2022-09-20T14:13:54;14.90;99.90
44817;DHT22;30529;53.570;9.964;2022-09-20T14:16:26;15.00;99.90
44817;DHT22;30529;53.570;9.964;2022-09-20T14:18:54;15.10;99.90
44817;DHT22;30529;53.570;9.964;2022-09-20T14:21:23;15.20;99.90
44817;DHT22;30529;53.570;9.964;2022-09-20T14:24:42;15.30;99.90
44817;DHT22;30529;53.570;9.964;2022-09-20T14:37:42;15.30;99.90
44817;DHT22;30529;53.570;9.964;2022-09-20T14:40:25;15.20;99.90
44817;DHT22;30529;53.570;9.964;2022-09-20T14:43:03;15.00;99.90
44817;DHT22;30529;53.570;9.964;2022-09-20T14:45:35;14.90;99.90
44817;DHT22;30529;53.570;9.964;2022-09-20T14:53:03;14.70;99.90
44817;DHT22;30529;53.570;9.964;2022-09-20T14:55:31;14.80;99.90
44817;DHT22;30529;53.570;9.964;2022-09-20T14:58:09;14.80;99.90
44817;DHT22;30529;53.570;9.964;2022-09-20T15:00:57;14.90;99.90
44817;DHT22;30529;53.570;9.964;2022-09-20T15:03:32;14.90;99.90
44817;DHT22;30529;53.570;9.964;2022-09-20T15:05:59;14.90;99.90
44817;DHT22;30529;53.570;9.964;2022-09-20T15:08:29;14.80;99.90
44817;DHT22;30529;53.570;9.964;2022-09-20T15:10:55;14.90;99.90
44817;DHT22;30529;53.570;9.964;2022-09-20T15:13:21;14.80;99.90
44817;DHT22;30529;53.570;9.964;2022-09-20T15:15:50;14.70;99.90
44817;DHT22;30529;53.570;9.964;2022-09-20T15:18:22;14.60;99.90
44817;DHT22;30529;53.570;9.964;2022-09-20T15:20:50;14.60;99.90
44817;DHT22;30529;53.570;9.964;2022-09-20T15:23:17;14.50;99.90
44817;DHT22;30529;53.570;9.964;2022-09-20T15:25:44;14.50;99.90
44817;DHT22;30529;53.570;9.964;2022-09-20T15:28:14;14.60;99.90
44817;DHT22;30529;53.570;9.964;2022-09-20T15:30:49;14.50;99.90
44817;DHT22;30529;53.570;9.964;2022-09-20T15:33:17;14.50;99.90
44817;DHT22;30529;53.570;9.964;2022-09-20T15:35:44;14.50;99.90
44817;DHT22;30529;53.570;9.964;2022-09-20T15:38:12;14.50;99.90
44817;DHT22;30529;53.570;9.964;2022-09-20T15:40:39;14.50;99.90
44817;DHT22;30529;53.570;9.964;2022-09-20T15:43:06;14.60;99.90
44817;DHT22;30529;53.570;9.964;2022-09-20T15:45:34;14.70;99.90
44817;DHT22;30529;53.570;9.964;2022-09-20T15:48:01;14.70;99.90
44817;DHT22;30529;53.570;9.964;2022-09-20T15:50:28;14.80;99.90
44817;DHT22;30529;53.570;9.964;2022-09-20T15:52:54;14.80;99.90
44817;DHT22;30529;53.570;9.964;2022-09-20T15:55:20;14.80;99.90
44817;DHT22;30529;53.570;9.964;2022-09-20T15:57:47;14.80;99.90
44817;DHT22;30529;53.570;9.964;2022-09-20T16:00:16;14.80;99.90
44817;DHT22;30529;53.570;9.964;2022-09-20T16:02:48;14.90;99.90
44817;DHT22;30529;53.570;9.964;2022-09-20T16:05:14;14.80;99.90
44817;DHT22;30529;53.570;9.964;2022-09-20T16:07:41;14.70;99.90
44817;DHT22;30529;53.570;9.964;2022-09-20T16:10:07;14.70;99.90
44817;DHT22;30529;53.570;9.964;2022-09-20T16:12:33;14.70;99.90
44817;DHT22;30529;53.570;9.964;2022-09-20T16:14:59;14.50;99.90
44817;DHT22;30529;53.570;9.964;2022-09-20T16:17:26;14.50;99.90
44817;DHT22;30529;53.570;9.964;2022-09-20T16:20:10;14.50;99.90
44817;DHT22;30529;53.570;9.964;2022-09-20T16:22:36;14.50;99.90
44817;DHT22;30529;53.570;9.964;2022-09-20T16:25:03;14.40;99.90
44817;DHT22;30529;53.570;9.964;2022-09-20T16:27:31;14.40;99.90
44817;DHT22;30529;53.570;9.964;2022-09-20T16:30:00;14.30;99.90
44817;DHT22;30529;53.570;9.964;2022-09-20T16:32:30;14.30;99.90
44817;DHT22;30529;53.570;9.964;2022-09-20T16:34:56;14.20;99.90
44817;DHT22;30529;53.570;9.964;2022-09-20T16:37:25;14.20;99.90
44817;DHT22;30529;53.570;9.964;2022-09-20T16:39:58;14.20;99.90
44817;DHT22;30529;53.570;9.964;2022-09-20T16:42:29;14.10;99.90
44817;DHT22;30529;53.570;9.964;2022-09-20T16:44:56;14.10;99.90
44817;DHT22;30529;53.570;9.964;2022-09-20T16:47:23;14.10;99.90
44817;DHT22;30529;53.570;9.964;2022-09-20T16:49:49;14.00;99.90
44817;DHT22;30529;53.570;9.964;2022-09-20T16:52:18;14.00;99.90
44817;DHT22;30529;53.570;9.964;2022-09-20T16:54:44;13.90;99.90
44817;DHT22;30529;53.570;9.964;2022-09-20T16:57:12;13.90;99.90
44817;DHT22;30529;53.570;9.964;2022-09-20T16:59:39;13.80;99.90
44817;DHT22;30529;53.570;9.964;2022-09-20T17:02:05;13.80;99.90
44817;DHT22;30529;53.570;9.964;2022-09-20T17:04:35;13.80;99.90
44817;DHT22;30529;53.570;9.964;2022-09-20T17:07:02;13.70;99.90
44817;DHT22;30529;53.570;9.964;2022-09-20T17:09:28;13.70;99.90
44817;DHT22;30529;53.570;9.964;2022-09-20T17:11:54;13.60;99.90
44817;DHT22;30529;53.570;9.964;2022-09-20T17:14:20;13.50;99.90
44817;DHT22;30529;53.570;9.964;2022-09-20T17:16:47;13.50;99.90
44817;DHT22;30529;53.570;9.964;2022-09-20T17:19:18;13.40;99.90
44817;DHT22;30529;53.570;9.964;2022-09-20T17:21:47;13.40;99.90
44817;DHT22;30529;53.570;9.964;2022-09-20T17:24:16;13.30;99.90
44817;DHT22;30529;53.570;9.964;2022-09-20T17:26:44;13.20;99.90
44817;DHT22;30529;53.570;9.964;2022-09-20T17:29:12;13.20;99.90
44817;DHT22;30529;53.570;9.964;2022-09-20T17:31:45;13.20;99.90
44817;DHT22;30529;53.570;9.964;2022-09-20T17:34:13;13.10;99.90
44817;DHT22;30529;53.570;9.964;2022-09-20T17:36:47;13.10;99.90
44817;DHT22;30529;53.570;9.964;2022-09-20T17:39:14;13.10;99.90
44817;DHT22;30529;53.570;9.964;2022-09-20T17:41:45;13.00;99.90
44817;DHT22;30529;53.570;9.964;2022-09-20T17:44:12;13.00;99.90
44817;DHT22;30529;53.570;9.964;2022-09-20T17:46:40;12.90;99.90
44817;DHT22;30529;53.570;9.964;2022-09-20T17:49:14;12.90;99.90
44817;DHT22;30529;53.570;9.964;2022-09-20T17:51:43;12.80;99.90
44817;DHT22;30529;53.570;9.964;2022-09-20T17:54:10;12.80;99.90
44817;DHT22;30529;53.570;9.964;2022-09-20T17:56:40;12.80;99.90
44817;DHT22;30529;53.570;9.964;2022-09-20T17:59:08;12.80;99.90
44817;DHT22;30529;53.570;9.964;2022-09-20T18:01:35;12.80;99.90
44817;DHT22;30529;53.570;9.964;2022-09-20T18:04:04;12.70;99.90
44817;DHT22;30529;53.570;9.964;2022-09-20T18:09:06;12.60;99.90
44817;DHT22;30529;53.570;9.964;2022-09-20T18:11:39;12.60;99.90
44817;DHT22;30529;53.570;9.964;2022-09-20T18:14:09;12.60;99.90
44817;DHT22;30529;53.570;9.964;2022-09-20T18:16:36;12.60;99.90
44817;DHT22;30529;53.570;9.964;2022-09-20T18:19:04;12.60;99.90
44817;DHT22;30529;53.570;9.964;2022-09-20T18:21:32;12.50;99.90
44817;DHT22;30529;53.570;9.964;2022-09-20T18:24:00;12.50;99.90
44817;DHT22;30529;53.570;9.964;2022-09-20T18:26:28;12.40;99.90
44817;DHT22;30529;53.570;9.964;2022-09-20T18:29:14;12.40;99.90
44817;DHT22;30529;53.570;9.964;2022-09-20T18:36:40;12.30;99.90
44817;DHT22;30529;53.570;9.964;2022-09-20T18:39:07;12.30;99.90
44817;DHT22;30529;53.570;9.964;2022-09-20T18:41:35;12.30;99.90
44817;DHT22;30529;53.570;9.964;2022-09-20T18:44:04;12.30;99.90
44817;DHT22;30529;53.570;9.964;2022-09-20T18:46:32;12.30;99.90
44817;DHT22;30529;53.570;9.964;2022-09-20T18:49:07;12.20;99.90
44817;DHT22;30529;53.570;9.964;2022-09-20T18:51:34;12.30;99.90
44817;DHT22;30529;53.570;9.964;2022-09-20T18:54:01;12.30;99.90
44817;DHT22;30529;53.570;9.964;2022-09-20T18:56:28;12.20;99.90
44817;DHT22;30529;53.570;9.964;2022-09-20T18:59:02;12.20;99.90
44817;DHT22;30529;53.570;9.964;2022-09-20T19:07:06;12.10;99.90
44817;DHT22;30529;53.570;9.964;2022-09-20T19:15:03;12.00;99.90
44817;DHT22;30529;53.570;9.964;2022-09-20T19:26:14;11.90;99.90
44817;DHT22;30529;53.570;9.964;2022-09-20T19:28:43;11.80;99.90
44817;DHT22;30529;53.570;9.964;2022-09-20T19:31:22;11.80;99.90
44817;DHT22;30529;53.570;9.964;2022-09-20T19:33:48;11.80;99.90
44817;DHT22;30529;53.570;9.964;2022-09-20T19:36:16;11.80;99.90
44817;DHT22;30529;53.570;9.964;2022-09-20T19:38:53;11.80;99.90
44817;DHT22;30529;53.570;9.964;2022-09-20T19:41:34;11.70;99.90
44817;DHT22;30529;53.570;9.964;2022-09-20T19:47:16;11.70;99.90
44817;DHT22;30529;53.570;9.964;2022-09-20T19:50:02;11.60;99.90
44817;DHT22;30529;53.570;9.964;2022-09-20T19:52:32;11.60;99.90
44817;DHT22;30529;53.570;9.964;2022-09-20T19:54:59;11.60;99.90
44817;DHT22;30529;53.570;9.964;2022-09-20T19:57:43;11.60;99.90
44817;DHT22;30529;53.570;9.964;2022-09-20T20:00:14;11.60;99.90
44817;DHT22;30529;53.570;9.964;2022-09-20T20:02:42;11.50;99.90
44817;DHT22;30529;53.570;9.964;2022-09-20T20:05:14;11.50;99.90
44817;DHT22;30529;53.570;9.964;2022-09-20T20:07:53;11.50;99.90
44817;DHT22;30529;53.570;9.964;2022-09-20T20:10:25;11.40;99.90
44817;DHT22;30529;53.570;9.964;2022-09-20T20:16:00;11.40;99.90
44817;DHT22;30529;53.570;9.964;2022-09-20T20:18:57;11.30;99.90
44817;DHT22;30529;53.570;9.964;2022-09-20T20:26:47;11.30;99.90
44817;DHT22;30529;53.570;9.964;2022-09-20T20:29:14;11.20;99.90
44817;DHT22;30529;53.570;9.964;2022-09-20T20:31:40;11.20;99.90
44817;DHT22;30529;53.570;9.964;2022-09-20T20:34:06;11.20;99.90
44817;DHT22;30529;53.570;9.964;2022-09-20T20:36:34;11.20;99.90
44817;DHT22;30529;53.570;9.964;2022-09-20T20:39:00;11.20;99.90
44817;DHT22;30529;53.570;9.964;2022-09-20T20:41:27;11.10;99.90
44817;DHT22;30529;53.570;9.964;2022-09-20T20:43:55;11.10;99.90
44817;DHT22;30529;53.570;9.964;2022-09-20T20:46:21;11.10;99.90
44817;DHT22;30529;53.570;9.964;2022-09-20T20:48:47;11.10;99.90
44817;DHT22;30529;53.570;9.964;2022-09-20T20:51:18;11.00;99.90
44817;DHT22;30529;53.570;9.964;2022-09-20T20:53:50;11.00;99.90
44817;DHT22;30529;53.570;9.964;2022-09-20T20:56:19;11.00;99.90
44817;DHT22;30529;53.570;9.964;2022-09-20T20:58:46;11.00;99.90
44817;DHT22;30529;53.570;9.964;2022-09-20T21:01:23;11.00;99.90
44817;DHT22;30529;53.570;9.964;2022-09-20T21:03:54;11.00;99.90
44817;DHT22;30529;53.570;9.964;2022-09-20T21:06:24;10.90;99.90
44817;DHT22;30529;53.570;9.964;2022-09-20T21:08:51;10.90;99.90
44817;DHT22;30529;53.570;9.964;2022-09-20T21:11:29;10.80;99.90
44817;DHT22;30529;53.570;9.964;2022-09-20T21:13:57;10.80;99.90
44817;DHT22;30529;53.570;9.964;2022-09-20T21:16:26;10.80;99.90
44817;DHT22;30529;53.570;9.964;2022-09-20T21:18:53;10.80;99.90
44817;DHT22;30529;53.570;9.964;2022-09-20T21:21:25;10.80;99.90
44817;DHT22;30529;53.570;9.964;2022-09-20T21:23:54;10.80;99.90
44817;DHT22;30529;53.570;9.964;2022-09-20T21:26:21;10.80;99.90
44817;DHT22;30529;53.570;9.964;2022-09-20T21:28:52;10.70;99.90
44817;DHT22;30529;53.570;9.964;2022-09-20T21:31:20;10.70;99.90
44817;DHT22;30529;53.570;9.964;2022-09-20T21:33:47;10.70;99.90
44817;DHT22;30529;53.570;9.964;2022-09-20T21:36:15;10.70;99.90
44817;DHT22;30529;53.570;9.964;2022-09-20T21:38:43;10.70;99.90
44817;DHT22;30529;53.570;9.964;2022-09-20T21:41:15;10.70;99.90
44817;DHT22;30529;53.570;9.964;2022-09-20T21:43:44;10.70;99.90
44817;DHT22;30529;53.570;9.964;2022-09-20T21:46:16;10.60;99.90
44817;DHT22;30529;53.570;9.964;2022-09-20T21:48:43;10.60;99.90
44817;DHT22;30529;53.570;9.964;2022-09-20T21:51:11;10.60;99.90
44817;DHT22;30529;53.570;9.964;2022-09-20T21:53:38;10.60;99.90
44817;DHT22;30529;53.570;9.964;2022-09-20T21:56:07;10.50;99.90
44817;DHT22;30529;53.570;9.964;2022-09-20T21:58:34;10.40;99.90
44817;DHT22;30529;53.570;9.964;2022-09-20T22:01:06;10.40;99.90
44817;DHT22;30529;53.570;9.964;2022-09-20T22:03:36;10.40;99.90
44817;DHT22;30529;53.570;9.964;2022-09-20T22:08:52;10.30;99.90
44817;DHT22;30529;53.570;9.964;2022-09-20T22:11:20;10.30;99.90
44817;DHT22;30529;53.570;9.964;2022-09-20T22:13:49;10.30;99.90
44817;DHT22;30529;53.570;9.964;2022-09-20T22:16:27;10.20;99.90